createdAt,value
2017-12-15T00:01:13.784Z,2.70
2017-12-15T00:03:42.096Z,2.70
2017-12-15T00:06:09.617Z,2.70
2017-12-15T00:08:37.930Z,2.60
2017-12-15T00:11:05.470Z,2.70
2017-12-15T00:13:33.000Z,2.70
2017-12-15T00:16:01.317Z,2.60
2017-12-15T00:18:28.844Z,2.60
2017-12-15T00:20:56.393Z,2.70
2017-12-15T00:23:24.703Z,2.60
2017-12-15T00:25:52.248Z,2.60
2017-12-15T00:28:19.768Z,2.60
2017-12-15T00:30:47.298Z,2.60
2017-12-15T00:33:14.871Z,2.70
2017-12-15T00:35:42.398Z,2.70
2017-12-15T00:38:09.944Z,2.70
2017-12-15T00:40:37.464Z,2.70
2017-12-15T00:43:05.006Z,2.70
2017-12-15T00:45:32.522Z,2.70
2017-12-15T00:48:00.100Z,2.70
2017-12-15T00:50:28.153Z,2.70
2017-12-15T00:52:55.705Z,2.70
2017-12-15T00:55:24.082Z,2.70
2017-12-15T00:57:51.634Z,2.70
2017-12-15T01:00:19.932Z,2.70
2017-12-15T01:02:47.473Z,2.70
2017-12-15T01:05:15.761Z,2.70
2017-12-15T01:07:43.304Z,2.60
2017-12-15T01:10:11.620Z,2.60
2017-12-15T01:12:39.142Z,2.60
2017-12-15T01:15:07.460Z,2.60
2017-12-15T01:17:34.997Z,2.60
2017-12-15T01:20:02.562Z,2.60
2017-12-15T01:22:30.099Z,2.70
2017-12-15T01:24:57.649Z,2.60
2017-12-15T01:27:25.953Z,2.60
2017-12-15T01:29:53.497Z,2.60
2017-12-15T01:32:21.017Z,2.50
2017-12-15T01:34:48.556Z,2.50
2017-12-15T01:37:16.093Z,2.40
2017-12-15T01:39:43.641Z,2.40
2017-12-15T01:42:11.257Z,2.40
2017-12-15T01:44:38.800Z,2.30
2017-12-15T01:47:06.336Z,2.40
2017-12-15T01:49:34.841Z,2.30
2017-12-15T01:52:02.397Z,2.30
2017-12-15T01:54:29.925Z,2.30
2017-12-15T01:56:57.444Z,2.30
2017-12-15T01:59:25.749Z,2.30
2017-12-15T02:01:53.276Z,2.30
2017-12-15T02:04:21.584Z,2.30
2017-12-15T02:06:49.145Z,2.30
2017-12-15T02:09:16.669Z,2.30
2017-12-15T02:11:45.702Z,2.20
2017-12-15T02:14:13.244Z,2.30
2017-12-15T02:16:40.766Z,2.30
2017-12-15T02:19:08.305Z,2.20
2017-12-15T02:21:35.829Z,2.20
2017-12-15T02:24:03.367Z,2.10
2017-12-15T02:26:30.885Z,2.20
2017-12-15T02:28:58.537Z,2.20
2017-12-15T02:31:26.048Z,2.20
2017-12-15T02:33:53.597Z,2.20
2017-12-15T02:36:21.123Z,2.20
2017-12-15T02:38:48.673Z,2.20
2017-12-15T02:41:16.218Z,2.30
2017-12-15T02:43:44.549Z,2.20
2017-12-15T02:46:12.081Z,2.20
2017-12-15T02:48:39.606Z,2.20
2017-12-15T02:51:07.918Z,2.20
2017-12-15T02:53:35.514Z,2.20
2017-12-15T02:56:03.065Z,2.30
2017-12-15T02:58:30.589Z,2.30
2017-12-15T03:00:58.132Z,2.20
2017-12-15T03:03:25.662Z,2.20
2017-12-15T03:05:53.196Z,2.30
2017-12-15T03:08:21.489Z,2.30
2017-12-15T03:10:49.801Z,2.30
2017-12-15T03:13:17.316Z,2.20
2017-12-15T03:15:45.628Z,2.40
2017-12-15T03:18:13.149Z,2.40
2017-12-15T03:20:41.479Z,2.30
2017-12-15T03:23:09.010Z,2.30
2017-12-15T03:25:36.560Z,2.40
2017-12-15T03:28:04.129Z,2.40
2017-12-15T03:30:31.651Z,2.30
2017-12-15T03:32:59.199Z,2.40
2017-12-15T03:35:26.749Z,2.30
2017-12-15T03:37:54.288Z,2.40
2017-12-15T03:40:21.804Z,2.40
2017-12-15T03:42:50.135Z,2.50
2017-12-15T03:45:17.652Z,2.50
2017-12-15T03:47:46.058Z,2.40
2017-12-15T03:50:13.578Z,2.40
2017-12-15T03:52:41.895Z,2.40
2017-12-15T03:55:09.430Z,2.40
2017-12-15T03:57:37.742Z,2.40
2017-12-15T04:00:05.284Z,2.40
2017-12-15T04:02:32.819Z,2.50
2017-12-15T04:05:01.127Z,2.20
2017-12-15T04:07:28.647Z,2.30
2017-12-15T04:09:56.962Z,2.00
2017-12-15T04:12:24.508Z,2.00
2017-12-15T04:14:52.058Z,1.90
2017-12-15T04:17:20.358Z,1.90
2017-12-15T04:19:47.899Z,1.90
2017-12-15T04:22:15.424Z,1.90
2017-12-15T04:24:42.964Z,1.90
2017-12-15T04:27:10.489Z,1.90
2017-12-15T04:29:38.035Z,1.90
2017-12-15T04:32:05.562Z,1.90
2017-12-15T04:34:33.114Z,1.90
2017-12-15T04:37:00.637Z,1.80
2017-12-15T04:39:28.256Z,1.90
2017-12-15T04:41:55.781Z,1.90
2017-12-15T04:44:23.311Z,1.80
2017-12-15T04:46:50.853Z,1.80
2017-12-15T04:49:19.149Z,1.90
2017-12-15T04:51:46.705Z,1.90
2017-12-15T04:54:14.237Z,1.90
2017-12-15T04:56:41.776Z,1.80
2017-12-15T04:59:09.306Z,1.70
2017-12-15T05:01:37.628Z,1.70
2017-12-15T05:04:05.374Z,1.70
2017-12-15T05:06:32.920Z,1.80
2017-12-15T05:09:01.218Z,1.80
2017-12-15T05:11:28.768Z,1.70
2017-12-15T05:13:56.312Z,1.80
2017-12-15T05:16:24.610Z,1.80
2017-12-15T05:18:52.160Z,1.80
2017-12-15T05:21:19.709Z,1.80
2017-12-15T05:23:48.136Z,1.70
2017-12-15T05:26:15.669Z,1.80
2017-12-15T05:28:43.240Z,1.70
2017-12-15T05:31:10.758Z,1.70
2017-12-15T05:33:39.104Z,1.70
2017-12-15T05:36:06.624Z,1.60
2017-12-15T05:38:34.165Z,1.60
2017-12-15T05:41:02.458Z,1.70
2017-12-15T05:43:30.022Z,1.70
2017-12-15T05:45:57.578Z,1.80
2017-12-15T05:48:25.105Z,1.90
2017-12-15T05:50:53.421Z,2.00
2017-12-15T05:53:20.953Z,1.90
2017-12-15T05:55:49.269Z,1.90
2017-12-15T05:58:16.808Z,1.90
2017-12-15T06:00:44.352Z,1.90
2017-12-15T06:03:11.928Z,1.90
2017-12-15T06:05:39.472Z,1.80
2017-12-15T06:08:07.777Z,1.90
2017-12-15T06:10:35.298Z,1.80
2017-12-15T06:13:03.617Z,1.80
2017-12-15T06:15:31.139Z,1.80
2017-12-15T06:17:59.478Z,1.70
2017-12-15T06:20:27.001Z,1.70
2017-12-15T06:22:54.544Z,1.70
2017-12-15T06:25:22.851Z,1.70
2017-12-15T06:27:50.392Z,1.70
2017-12-15T06:30:17.967Z,1.70
2017-12-15T06:32:45.495Z,1.70
2017-12-15T06:35:13.818Z,1.60
2017-12-15T06:37:41.362Z,1.60
2017-12-15T06:40:09.145Z,1.60
2017-12-15T06:42:37.569Z,1.60
2017-12-15T06:45:05.879Z,1.60
2017-12-15T06:47:33.408Z,1.60
2017-12-15T06:50:01.720Z,1.60
2017-12-15T06:52:29.258Z,1.60
2017-12-15T06:54:57.552Z,1.70
2017-12-15T06:57:25.125Z,1.70
2017-12-15T06:59:52.653Z,1.70
2017-12-15T07:02:20.959Z,1.70
2017-12-15T07:04:48.480Z,1.70
2017-12-15T07:07:16.797Z,1.80
2017-12-15T07:09:44.314Z,1.80
2017-12-15T07:12:12.621Z,1.90
2017-12-15T07:14:40.146Z,1.90
2017-12-15T07:17:08.441Z,2.00
2017-12-15T07:19:36.745Z,1.90
2017-12-15T07:22:04.268Z,1.90
2017-12-15T07:24:32.597Z,1.90
2017-12-15T07:27:00.124Z,1.90
2017-12-15T07:29:27.669Z,1.90
2017-12-15T07:31:55.958Z,2.00
2017-12-15T07:34:23.509Z,2.00
2017-12-15T07:36:51.792Z,2.10
2017-12-15T07:39:20.112Z,2.10
2017-12-15T07:41:47.684Z,2.10
2017-12-15T07:44:15.230Z,2.10
2017-12-15T07:46:42.771Z,2.20
2017-12-15T07:49:11.125Z,2.20
2017-12-15T07:51:39.409Z,2.20
2017-12-15T07:54:06.967Z,2.20
2017-12-15T07:56:34.533Z,2.20
2017-12-15T07:59:02.119Z,2.20
2017-12-15T08:01:29.661Z,2.30
2017-12-15T08:03:57.229Z,2.20
2017-12-15T08:06:24.765Z,2.30
2017-12-15T08:08:52.288Z,2.20
2017-12-15T08:11:19.826Z,2.20
2017-12-15T08:13:47.358Z,2.30
2017-12-15T08:16:15.368Z,2.40
2017-12-15T08:18:42.908Z,2.60
2017-12-15T08:21:10.445Z,2.60
2017-12-15T08:23:37.992Z,2.50
2017-12-15T08:26:05.532Z,2.40
2017-12-15T08:28:33.824Z,2.40
2017-12-15T08:31:01.949Z,2.40
2017-12-15T08:33:29.497Z,2.40
2017-12-15T08:35:57.020Z,2.50
2017-12-15T08:38:25.351Z,2.40
2017-12-15T08:40:52.880Z,2.40
2017-12-15T08:43:20.427Z,2.40
2017-12-15T08:45:47.972Z,2.40
2017-12-15T08:48:16.277Z,2.40
2017-12-15T08:50:43.798Z,2.40
2017-12-15T08:53:12.107Z,2.50
2017-12-15T08:55:39.633Z,2.40
2017-12-15T08:58:07.947Z,2.40
2017-12-15T09:00:35.498Z,2.40
2017-12-15T09:03:03.033Z,2.40
2017-12-15T09:05:31.315Z,2.40
2017-12-15T09:07:59.626Z,2.40
2017-12-15T09:10:27.162Z,2.40
2017-12-15T09:12:54.689Z,2.70
2017-12-15T09:15:22.233Z,3.00
2017-12-15T09:17:49.797Z,3.00
2017-12-15T09:20:17.348Z,3.00
2017-12-15T09:22:44.894Z,3.30
2017-12-15T09:25:12.433Z,3.50
2017-12-15T09:27:39.966Z,3.60
2017-12-15T09:30:08.387Z,3.20
2017-12-15T09:32:35.931Z,3.20
2017-12-15T09:35:03.474Z,3.30
2017-12-15T09:37:31.824Z,3.30
2017-12-15T09:39:59.350Z,3.40
2017-12-15T09:42:26.893Z,3.70
2017-12-15T09:44:54.388Z,3.80
2017-12-15T09:47:23.049Z,3.90
2017-12-15T09:49:50.615Z,3.90
2017-12-15T09:52:18.120Z,4.00
2017-12-15T09:54:46.379Z,4.40
2017-12-15T09:57:13.875Z,4.40
2017-12-15T09:59:41.387Z,4.30
2017-12-15T10:02:08.889Z,4.40
2017-12-15T10:04:36.380Z,4.30
2017-12-15T10:07:03.892Z,4.40
2017-12-15T10:09:32.161Z,5.10
2017-12-15T10:12:00.461Z,5.00
2017-12-15T10:14:28.018Z,5.00
2017-12-15T10:16:55.540Z,5.50
2017-12-15T10:19:23.421Z,5.70
2017-12-15T10:21:50.987Z,5.10
2017-12-15T10:24:19.268Z,4.60
2017-12-15T10:26:47.534Z,4.50
2017-12-15T10:29:15.816Z,4.10
2017-12-15T10:31:44.072Z,4.20
2017-12-15T10:34:11.582Z,4.20
2017-12-15T10:36:39.071Z,4.20
2017-12-15T10:39:06.579Z,4.30
2017-12-15T10:41:34.087Z,4.30
2017-12-15T10:44:01.666Z,4.40
2017-12-15T10:46:29.121Z,4.50
2017-12-15T10:48:57.416Z,4.10
2017-12-15T10:51:24.912Z,4.10
2017-12-15T10:53:53.685Z,4.20
2017-12-15T10:56:21.188Z,4.30
2017-12-15T10:58:48.688Z,4.20
2017-12-15T11:01:16.189Z,4.30
2017-12-15T11:03:43.731Z,4.50
2017-12-15T11:06:11.229Z,4.60
2017-12-15T11:08:39.530Z,4.40
2017-12-15T11:11:07.045Z,4.40
2017-12-15T11:13:34.569Z,4.40
2017-12-15T11:16:02.087Z,4.60
2017-12-15T11:18:30.402Z,4.60
2017-12-15T11:20:57.914Z,4.60
2017-12-15T11:23:26.237Z,5.00
2017-12-15T11:25:53.732Z,5.10
2017-12-15T11:28:21.254Z,4.80
2017-12-15T11:30:48.767Z,4.80
2017-12-15T11:33:17.040Z,4.70
2017-12-15T11:35:44.533Z,4.70
2017-12-15T11:38:12.032Z,4.70
2017-12-15T11:40:39.520Z,4.60
2017-12-15T11:43:07.026Z,4.60
2017-12-15T11:45:34.520Z,4.60
2017-12-15T11:48:02.033Z,4.70
2017-12-15T11:50:29.535Z,4.60
2017-12-15T11:52:57.053Z,4.60
2017-12-15T11:55:24.561Z,4.70
2017-12-15T11:57:52.056Z,4.80
2017-12-15T12:00:19.563Z,4.80
2017-12-15T12:02:47.072Z,4.90
2017-12-15T12:05:14.618Z,4.90
2017-12-15T12:07:42.879Z,5.10
2017-12-15T12:10:10.420Z,5.10
2017-12-15T12:12:37.903Z,5.10
2017-12-15T12:15:05.451Z,5.00
2017-12-15T12:17:32.971Z,5.00
2017-12-15T12:20:00.501Z,5.00
2017-12-15T12:22:28.756Z,4.90
2017-12-15T12:24:57.060Z,4.90
2017-12-15T12:27:24.563Z,4.90
2017-12-15T12:29:52.092Z,4.80
2017-12-15T12:32:19.600Z,4.70
2017-12-15T12:34:47.109Z,4.70
2017-12-15T12:37:14.669Z,4.70
2017-12-15T12:39:42.156Z,4.60
2017-12-15T12:42:09.656Z,4.60
2017-12-15T12:44:37.908Z,4.50
2017-12-15T12:47:05.437Z,4.40
2017-12-15T12:49:32.931Z,4.50
2017-12-15T12:52:00.471Z,4.50
2017-12-15T12:54:27.967Z,4.50
2017-12-15T12:56:56.257Z,4.50
2017-12-15T12:59:23.759Z,4.50
2017-12-15T13:01:51.246Z,4.50
2017-12-15T13:04:19.535Z,4.50
2017-12-15T13:06:47.800Z,4.40
2017-12-15T13:09:15.319Z,4.40
2017-12-15T13:11:42.808Z,4.40
2017-12-15T13:14:11.077Z,4.50
2017-12-15T13:16:39.800Z,4.50
2017-12-15T13:19:08.119Z,4.70
2017-12-15T13:21:35.624Z,4.60
2017-12-15T13:24:03.900Z,4.50
2017-12-15T13:26:32.152Z,4.40
2017-12-15T13:28:59.666Z,4.40
2017-12-15T13:31:27.162Z,4.50
2017-12-15T13:33:54.673Z,4.70
2017-12-15T13:36:22.154Z,5.20
2017-12-15T13:38:49.669Z,5.40
2017-12-15T13:41:17.933Z,5.30
2017-12-15T13:43:45.511Z,5.30
2017-12-15T13:46:13.789Z,6.40
2017-12-15T13:48:42.044Z,6.70
2017-12-15T13:51:09.591Z,6.70
2017-12-15T13:53:37.084Z,6.10
2017-12-15T13:56:05.360Z,5.80
2017-12-15T13:58:33.612Z,5.40
2017-12-15T14:01:01.112Z,5.40
2017-12-15T14:03:28.641Z,5.20
2017-12-15T14:06:03.312Z,4.80
2017-12-15T14:08:30.839Z,4.80
2017-12-15T14:10:59.133Z,4.00
2017-12-15T14:13:26.631Z,3.90
2017-12-15T14:15:54.140Z,3.80
2017-12-15T14:18:22.408Z,3.60
2017-12-15T14:20:50.718Z,3.50
2017-12-15T14:23:18.253Z,3.50
2017-12-15T14:25:46.665Z,3.50
2017-12-15T14:28:14.229Z,3.40
2017-12-15T14:30:42.519Z,3.80
2017-12-15T14:33:10.063Z,3.80
2017-12-15T14:35:38.371Z,4.10
2017-12-15T14:38:05.938Z,4.10
2017-12-15T14:40:33.470Z,4.40
2017-12-15T14:43:01.015Z,4.40
2017-12-15T14:45:29.313Z,4.50
2017-12-15T14:47:56.852Z,4.50
2017-12-15T14:50:25.150Z,4.40
2017-12-15T14:52:52.689Z,4.40
2017-12-15T14:55:20.993Z,4.00
2017-12-15T14:57:48.539Z,4.00
2017-12-15T15:00:16.835Z,3.90
2017-12-15T15:02:44.377Z,3.90
2017-12-15T15:05:12.668Z,3.60
2017-12-15T15:07:40.193Z,3.60
2017-12-15T15:10:08.517Z,3.50
2017-12-15T15:12:36.044Z,3.40
2017-12-15T15:15:04.345Z,3.30
2017-12-15T15:17:31.893Z,3.30
2017-12-15T15:19:59.449Z,3.20
2017-12-15T15:22:27.736Z,3.00
2017-12-15T15:24:55.280Z,3.00
2017-12-15T15:27:22.816Z,3.00
2017-12-15T15:29:50.361Z,2.90
2017-12-15T15:32:17.912Z,2.90
2017-12-15T15:34:46.965Z,2.80
2017-12-15T15:37:14.521Z,2.80
2017-12-15T15:39:43.650Z,2.90
2017-12-15T15:42:11.214Z,2.70
2017-12-15T15:44:38.843Z,2.70
2017-12-15T15:47:06.403Z,2.50
2017-12-15T15:49:33.930Z,2.50
2017-12-15T15:52:01.481Z,2.40
2017-12-15T15:54:29.772Z,2.30
2017-12-15T15:56:57.329Z,2.20
2017-12-15T15:59:24.851Z,2.20
2017-12-15T16:01:52.426Z,2.10
2017-12-15T16:04:20.713Z,2.10
2017-12-15T16:06:49.010Z,2.10
2017-12-15T16:09:16.550Z,2.10
2017-12-15T16:11:44.859Z,2.10
2017-12-15T16:14:12.416Z,2.10
2017-12-15T16:16:39.950Z,2.00
2017-12-15T16:19:08.264Z,1.90
2017-12-15T16:21:35.801Z,1.90
2017-12-15T16:24:03.366Z,1.80
2017-12-15T16:26:30.906Z,1.80
2017-12-15T16:28:59.224Z,1.90
2017-12-15T16:31:26.754Z,1.80
2017-12-15T16:33:54.301Z,1.80
2017-12-15T16:36:21.843Z,1.70
2017-12-15T16:38:50.177Z,1.50
2017-12-15T16:41:17.714Z,1.50
2017-12-15T16:43:45.269Z,1.50
2017-12-15T16:46:12.798Z,1.40
2017-12-15T16:48:40.832Z,1.40
2017-12-15T16:51:08.390Z,1.30
2017-12-15T16:53:35.916Z,1.40
2017-12-15T16:56:03.457Z,1.40
2017-12-15T16:58:31.748Z,1.50
2017-12-15T17:00:59.318Z,1.50
2017-12-15T17:03:26.840Z,1.60
2017-12-15T17:05:54.427Z,1.60
2017-12-15T17:08:21.923Z,1.60
2017-12-15T17:10:49.493Z,1.60
2017-12-15T17:13:17.066Z,1.60
2017-12-15T17:15:44.608Z,1.50
2017-12-15T17:18:12.150Z,1.50
2017-12-15T17:20:39.676Z,1.60
2017-12-15T17:23:07.981Z,1.40
2017-12-15T17:25:35.500Z,1.40
2017-12-15T17:28:03.816Z,1.60
2017-12-15T17:30:31.346Z,1.50
2017-12-15T17:32:59.653Z,1.50
2017-12-15T17:35:27.182Z,1.50
2017-12-15T17:37:55.500Z,1.60
2017-12-15T17:40:24.009Z,1.60
2017-12-15T17:42:51.561Z,1.70
2017-12-15T17:45:19.086Z,1.80
2017-12-15T17:47:46.641Z,1.90
2017-12-15T17:50:14.182Z,1.90
2017-12-15T17:52:42.533Z,1.80
2017-12-15T17:55:10.064Z,1.80
2017-12-15T17:57:37.601Z,1.70
2017-12-15T18:00:05.135Z,1.60
2017-12-15T18:02:33.464Z,1.50
2017-12-15T18:05:01.026Z,1.40
2017-12-15T18:07:28.548Z,1.30
2017-12-15T18:09:56.090Z,1.30
2017-12-15T18:12:24.378Z,1.30
2017-12-15T18:14:52.736Z,1.20
2017-12-15T18:17:21.046Z,1.00
2017-12-15T18:19:48.566Z,1.10
2017-12-15T18:22:16.112Z,1.10
2017-12-15T18:24:46.044Z,1.10
2017-12-15T18:27:14.374Z,1.00
2017-12-15T18:29:41.913Z,1.00
2017-12-15T18:32:09.470Z,1.00
2017-12-15T18:34:37.014Z,0.90
2017-12-15T18:37:05.641Z,0.90
2017-12-15T18:39:33.192Z,0.90
2017-12-15T18:42:00.751Z,1.00
2017-12-15T18:44:28.278Z,1.00
2017-12-15T18:46:57.711Z,1.10
2017-12-15T18:49:25.275Z,1.10
2017-12-15T18:51:52.812Z,1.10
2017-12-15T18:54:21.126Z,1.10
2017-12-15T18:56:48.653Z,1.10
2017-12-15T18:59:16.217Z,1.10
2017-12-15T19:01:43.750Z,1.10
2017-12-15T19:04:12.056Z,1.20
2017-12-15T19:06:39.941Z,1.10
2017-12-15T19:09:08.398Z,1.10
2017-12-15T19:11:36.905Z,1.00
2017-12-15T19:14:04.496Z,1.00
2017-12-15T19:16:32.043Z,1.00
2017-12-15T19:18:59.597Z,1.00
2017-12-15T19:21:27.108Z,1.00
2017-12-15T19:23:55.397Z,1.00
2017-12-15T19:26:22.974Z,1.00
2017-12-15T19:28:50.637Z,1.00
2017-12-15T19:31:18.193Z,0.90
2017-12-15T19:33:45.737Z,0.80
2017-12-15T19:36:14.058Z,0.80
2017-12-15T19:38:41.601Z,0.80
2017-12-15T19:41:09.162Z,0.70
2017-12-15T19:43:36.687Z,0.90
2017-12-15T19:46:04.984Z,1.00
2017-12-15T19:48:32.536Z,1.00
2017-12-15T19:51:00.064Z,1.00
2017-12-15T19:53:28.421Z,1.00
2017-12-15T19:55:55.960Z,1.00
2017-12-15T19:58:23.506Z,1.00
2017-12-15T20:00:51.041Z,1.10
2017-12-15T20:03:19.358Z,1.00
2017-12-15T20:05:46.898Z,1.00
2017-12-15T20:08:14.449Z,1.00
2017-12-15T20:10:42.006Z,0.90
2017-12-15T20:13:09.571Z,0.80
2017-12-15T20:15:37.116Z,0.70
2017-12-15T20:18:05.405Z,0.60
2017-12-15T20:20:32.942Z,0.50
2017-12-15T20:23:01.249Z,0.30
2017-12-15T20:25:28.808Z,0.30
2017-12-15T20:27:56.354Z,0.20
2017-12-15T20:30:23.916Z,0.10
2017-12-15T20:32:52.227Z,-0.10
2017-12-15T20:35:19.784Z,-0.20
2017-12-15T20:37:47.323Z,-0.10
2017-12-15T20:40:14.869Z,-0.20
2017-12-15T20:42:43.215Z,-0.10
2017-12-15T20:45:10.782Z,-0.10
2017-12-15T20:47:38.325Z,0.00
2017-12-15T20:50:05.874Z,0.10
2017-12-15T20:52:33.394Z,0.10
2017-12-15T20:55:00.933Z,0.00
2017-12-15T20:57:29.289Z,0.00
2017-12-15T20:59:56.869Z,0.00
2017-12-15T21:02:25.185Z,0.00
2017-12-15T21:04:52.763Z,-0.10
2017-12-15T21:07:20.315Z,-0.10
2017-12-15T21:09:47.881Z,0.00
2017-12-15T21:12:15.413Z,0.10
2017-12-15T21:14:42.971Z,0.30
2017-12-15T21:17:10.556Z,0.40
2017-12-15T21:19:38.083Z,0.50
2017-12-15T21:22:05.656Z,0.60
2017-12-15T21:24:33.189Z,0.60
2017-12-15T21:27:01.516Z,0.50
2017-12-15T21:29:29.038Z,0.50
2017-12-15T21:31:57.329Z,0.50
2017-12-15T21:34:24.885Z,0.50
2017-12-15T21:36:52.439Z,0.50
2017-12-15T21:39:20.749Z,0.50
2017-12-15T21:41:48.276Z,0.50
2017-12-15T21:44:15.831Z,0.50
2017-12-15T21:46:43.371Z,0.60
2017-12-15T21:49:10.935Z,0.60
2017-12-15T21:51:38.480Z,0.60
2017-12-15T21:54:06.043Z,0.70
2017-12-15T21:56:33.588Z,0.70
2017-12-15T21:59:01.132Z,0.70
2017-12-15T22:01:28.672Z,0.80
2017-12-15T22:03:56.997Z,0.80
2017-12-15T22:06:24.550Z,0.80
2017-12-15T22:08:52.101Z,0.70
2017-12-15T22:11:19.635Z,0.70
2017-12-15T22:13:47.192Z,0.70
2017-12-15T22:16:14.726Z,0.70
2017-12-15T22:18:43.028Z,0.70
2017-12-15T22:21:10.578Z,0.60
2017-12-15T22:23:38.896Z,0.70
2017-12-15T22:26:06.451Z,0.70
2017-12-15T22:28:34.774Z,0.60
2017-12-15T22:31:02.324Z,0.50
2017-12-15T22:33:29.878Z,0.60
2017-12-15T22:35:57.433Z,0.50
2017-12-15T22:38:24.960Z,0.50
2017-12-15T22:40:52.503Z,0.50
2017-12-15T22:43:20.046Z,0.50
2017-12-15T22:45:48.364Z,0.60
2017-12-15T22:48:15.917Z,0.60
2017-12-15T22:50:43.510Z,0.60
2017-12-15T22:53:11.149Z,0.60
2017-12-15T22:55:39.433Z,0.50
2017-12-15T22:58:06.968Z,0.50
2017-12-15T23:00:34.500Z,0.50
2017-12-15T23:03:02.816Z,0.60
2017-12-15T23:05:30.349Z,0.60
2017-12-15T23:07:58.664Z,0.70
2017-12-15T23:10:26.196Z,0.70
2017-12-15T23:12:53.749Z,0.70
2017-12-15T23:15:22.053Z,0.80
2017-12-15T23:17:49.621Z,0.70
2017-12-15T23:20:17.158Z,0.80
2017-12-15T23:22:44.709Z,0.90
2017-12-15T23:25:12.243Z,0.90
2017-12-15T23:27:39.805Z,0.90
2017-12-15T23:30:08.097Z,0.90
2017-12-15T23:32:36.437Z,1.00
2017-12-15T23:35:03.960Z,1.00
2017-12-15T23:37:31.529Z,0.90
2017-12-15T23:39:59.063Z,1.00
2017-12-15T23:42:26.595Z,1.10
2017-12-15T23:44:54.924Z,0.90
2017-12-15T23:47:22.444Z,0.90
2017-12-15T23:49:50.744Z,0.80
2017-12-15T23:52:18.273Z,0.80
2017-12-15T23:54:58.529Z,0.80
2017-12-15T23:57:26.823Z,0.80
2017-12-15T23:59:55.116Z,0.80
